Nearby METAR Reports

 

KCFV - Coffeyville, Kansas, USA
Distance from station: ENE 93mi, 150km
Updated: Thu, 01-23-2020 6:52pm CST
Overcast
Overcast
 Wind from WNW
Wind: WNW 13 mph , 20 km/h
Temperature: 39°F , 4°C
Wind Chill: 31°F , -1°C
Dew Point: 36°F , 2°C
Humidity: 87%
Barometer: 1012.2 hPa
Clouds: Overcast
Visibility: 10 miles , 16 km
Cloud details: Overcast 2300 ft
2020/01/24 00:52 KCFV 240052Z AUTO 30011KT 10SM OVC023 04/02 A2989 RMK AO2 RAE09 SLP124 P0000 T00440022
KIDP - Independence, Kansas, USA
Distance from station: NE 86mi, 138km
Updated: Thu, 01-23-2020 7:30pm CST
Light drizzle, Overcast
Light drizzle, Overcast
 Wind from NW
Wind: NW 15 mph , 24 km/h
Temperature: 37°F , 3°C
Wind Chill: 28°F , -2°C
Dew Point: 36°F , 2°C
Humidity: 93%
Barometer: 1012.9 hPa
Summary: Light Drizzle
Clouds: Overcast
Visibility: 10 miles , 16 km
Cloud details: Mostly cloudy 1700 ft
Mostly cloudy 4400 ft
Overcast 5000 ft
2020/01/24 01:30 KIDP 240130Z AUTO 31013KT 10SM -DZ BKN017 BKN044 OVC050 03/02 A2991 RMK AO2 T00310017
KIAB - Mcconnell Afb, Kansas, USA
Distance from station: N 84mi, 135km
Updated: Thu, 01-23-2020 7:26pm CST
Light snow, Mist, Overcast
Light snow, Mist, Overcast
 Wind from NNW
Wind: NNW 15 mph , 24 km/h
Temperature: 34°F , 1°C
Wind Chill: 24°F , -4°C
Dew Point: 32°F , 0°C
Humidity: 93%
Barometer: 1013.9 hPa
Summary: Light snow, Mist
Clouds: Overcast
Visibility: 3 miles , 5 km
Cloud details: Overcast 400 ft
2020/01/24 01:26 KIAB 240126Z AUTO 33013KT 3SM -SN BR OVC004 01/00 A2994 RMK AO2 VIS 2 1/2 RWY19 OVC V BKN SLPNO
 
KICT - Wichita, Kansas, USA
Distance from station: NNW 88mi, 142km
Updated: Thu, 01-23-2020 6:53pm CST
Light snow, Mist, Overcast
Light snow, Mist, Overcast
 Wind from NNW
Wind: NNW 22 mph , 35 km/h, Gust: 28 mph , 44 km/h
Temperature: 34°F , 1°C
Wind Chill: 22°F , -6°C
Dew Point: 30°F , -1°C
Humidity: 87%
Barometer: 1014.2 hPa
Summary: Light snow, Mist
Clouds: Overcast
Visibility: 4 miles , 6 km
Cloud details: Mostly cloudy 800 ft
Overcast 1400 ft
2020/01/24 00:53 KICT 240053Z 33019G24KT 4SM -SN BR BKN008 OVC014 01/M01 A2995 RMK AO2 PK WND 33026/0031 RAE03B31E42SNB03 SLP150 P0002 T00111006
KAAO - Wichita/Jabara, Kansas, USA
Distance from station: N 93mi, 149km
Updated: Thu, 01-23-2020 7:40pm CST
Light snow, Mist, Overcast
Light snow, Mist, Overcast
 Wind from NNW
Wind: NNW 13 mph , 20 km/h
Temperature: 34°F , 1°C
Wind Chill: 25°F , -4°C
Dew Point: 30°F , -1°C
Humidity: 87%
Barometer: 1014.2 hPa
Summary: Light snow, Mist
Clouds: Overcast
Visibility: 2 1/2 miles , 4 km
Cloud details: Few Clouds 600 ft
Mostly cloudy 900 ft
Overcast 2400 ft
2020/01/24 01:40 KAAO 240140Z AUTO 33011KT 2 1/2SM -SN BR FEW006 BKN009 OVC024 01/M01 A2995 RMK AO2 P0001 T00061006
KWLD - Winfield/Arkansa, Kansas, USA
Distance from station: N 52mi, 84km
Updated: Thu, 01-23-2020 7:31pm CST
Light snow, Overcast
Light snow, Overcast
 Wind from NW
Wind: NW 15 mph , 24 km/h
Temperature: 36°F , 2°C
Wind Chill: 27°F , -3°C
Dew Point: 30°F , -1°C
Humidity: 81%
Barometer: 1014.6 hPa
Summary: Light Snow
Clouds: Overcast
Visibility: 9 miles , 14 km
Cloud details: Mostly cloudy 900 ft
Overcast 1400 ft
2020/01/24 01:31 KWLD 240131Z AUTO 32013KT 9SM -SN BKN009 OVC014 02/M01 A2996 RMK AO2 UPB15E29SNB29 P0000 T00221006
 
KAVK - Alva, Oklahoma, USA
Distance from station: WNW 94mi, 152km
Updated: Thu, 01-23-2020 7:35pm CST
Mostly cloudy
Mostly cloudy
 Wind from NNW
Wind: NNW 9 mph , 15 km/h
Temperature: 39°F , 4°C
Wind Chill: 33°F , 1°C
Dew Point: 34°F , 1°C
Humidity: 81%
Barometer: 1016.6 hPa
Clouds: Mostly cloudy
Visibility: 10 miles , 16 km
Cloud details: Few Clouds 3800 ft
Partly cloudy 5000 ft
Mostly cloudy 7500 ft
2020/01/24 01:35 KAVK 240135Z AUTO 34008KT 10SM FEW038 SCT050 BKN075 04/01 A3002 RMK AO2 PWINO TSNO
KBVO - Bartlesville, Oklahoma, USA
Distance from station: ENE 61mi, 98km
Updated: Thu, 01-23-2020 6:53pm CST
Overcast
Overcast
 Wind from WNW
Wind: WNW 7 mph , 11 km/h, Gust: 17 mph , 28 km/h
Temperature: 39°F , 4°C
Wind Chill: 34°F , 1°C
Dew Point: 36°F , 2°C
Humidity: 87%
Barometer: 1013.5 hPa
Clouds: Overcast
Visibility: 10 miles , 16 km
Cloud details: Partly cloudy 5000 ft
Mostly cloudy 7000 ft
Overcast 12000 ft
2020/01/24 00:53 KBVO 240053Z AUTO 29006G15KT 10SM SCT050 BKN070 OVC120 04/02 A2993 RMK AO2 SLP136 T00390017
KBKN - Blackwell, Oklahoma, USA
Distance from station: NW 29mi, 47km
Updated: Thu, 01-23-2020 7:35pm CST
Light rain, Overcast
Light rain, Overcast
 Wind from NW
Wind: NW 16 mph , 26 km/h, Gust: 28 mph , 44 km/h
Temperature: 37°F , 3°C
Wind Chill: 28°F , -2°C
Dew Point: 37°F , 3°C
Humidity: 100%
Barometer: 1016.3 hPa
Summary: Light rain
Clouds: Overcast
Visibility: 7 miles , 11 km
Cloud details: Partly cloudy 1200 ft
Mostly cloudy 2300 ft
Overcast 2900 ft
2020/01/24 01:35 KBKN 240135Z AUTO 31014G24KT 7SM -RA SCT012 BKN023 OVC029 03/03 A3001 RMK AO2
 
KGCM - Claremore, Oklahoma, USA
Distance from station: E 86mi, 138km
Updated: Thu, 01-23-2020 7:35pm CST
Mostly cloudy
Mostly cloudy
 Wind from WNW
Wind: WNW 12 mph , 19 km/h, Gust: 18 mph , 30 km/h
Temperature: 39°F , 4°C
Wind Chill: 32°F , 0°C
Dew Point: 32°F , 0°C
Humidity: 75%
Barometer: 1013.5 hPa
Clouds: Mostly cloudy
Visibility: 10 miles , 16 km
Cloud details: Mostly cloudy 1900 ft
Mostly cloudy 7500 ft
Mostly cloudy 8500 ft
2020/01/24 01:35 KGCM 240135Z AUTO 30010G16KT 10SM BKN019 BKN075 BKN085 04/00 A2993 RMK AO2
KCQB - Chandler, Oklahoma, USA
Distance from station: SSE 50mi, 80km
Updated: Thu, 01-23-2020 7:35pm CST
Overcast
Overcast
 Wind from NNW
Wind: NNW 13 mph , 20 km/h
Temperature: 43°F , 6°C
Wind Chill: 36°F , 2°C
Dew Point: 36°F , 2°C
Humidity: 76%
Barometer: 1014.9 hPa
Clouds: Overcast
Visibility: 10 miles , 16 km
Cloud details: Mostly cloudy 7000 ft
Overcast 8000 ft
2020/01/24 01:35 KCQB 240135Z AUTO 33011KT 10SM BKN070 OVC080 06/02 A2997 RMK AO2 T00570017
KCUH - Cushing, Oklahoma, USA
Distance from station: SSE 35mi, 57km
Updated: Thu, 01-23-2020 7:35pm CST
Overcast
Overcast
 Wind from NNW
Wind: NNW 15 mph , 24 km/h, Gust: 29 mph , 46 km/h
Temperature: 41°F , 5°C
Wind Chill: 33°F , 1°C
Dew Point: 36°F , 2°C
Humidity: 81%
Barometer: 1014.6 hPa
Clouds: Overcast
Visibility: 10 miles , 16 km
Cloud details: Overcast 9000 ft
2020/01/24 01:35 KCUH 240135Z AUTO 34013G25KT 10SM OVC090 05/02 A2996 RMK AO2 T00510018
 
KRQO - El Reno Muni, Oklahoma, USA
Distance from station: SW 85mi, 137km
Updated: Thu, 01-23-2020 7:30pm CST
Clear
Clear
 Wind from W
Wind: W 13 mph , 20 km/h
Temperature: 39°F , 4°C
Wind Chill: 31°F , -1°C
Dew Point: 30°F , -1°C
Humidity: 70%
Barometer: 1015.9 hPa
Clouds: Clear
Visibility: 10 miles , 16 km
2020/01/24 01:30 KRQO 240130Z AUTO 28011KT 10SM CLR 04/M01 A3000 RMK AO2 TSNO T00441010
KEND - Enid/Vance Afb, Oklahoma, USA
Distance from station: W 50mi, 81km
Updated: Thu, 01-23-2020 7:16pm CST
Few Clouds
Few Clouds
 Wind from NNW
Wind: NNW 17 mph , 28 km/h
Temperature: 43°F , 6°C
Wind Chill: 35°F , 2°C
Dew Point: 37°F , 3°C
Humidity: 81%
Barometer: 1015.2 hPa
Clouds: Few Clouds
Visibility: 10 miles , 16 km
Cloud details: Few Clouds 8500 ft
2020/01/24 01:16 KEND 240116Z AUTO 34015KT 10SM R35C/4500FT FEW085 06/03 A2998 RMK AO2 SLPNO $
KWDG - Enid/Woodring, Oklahoma, USA
Distance from station: W 42mi, 67km
Updated: Thu, 01-23-2020 7:45pm CST
Mostly cloudy
Mostly cloudy
 Wind from NW
Wind: NW 14 mph , 22 km/h
Temperature: 41°F , 5°C
Wind Chill: 33°F , 1°C
Dew Point: 34°F , 1°C
Humidity: 76%
Barometer: 1015.6 hPa
Clouds: Mostly cloudy
Visibility: 10 miles , 16 km
Cloud details: Partly cloudy 7000 ft
Mostly cloudy 8500 ft
Mostly cloudy 9500 ft
2020/01/24 01:45 KWDG 240145Z 32012KT 10SM SCT070 BKN085 BKN095 05/01 A2999
 
KGOK - Guthrie, Oklahoma, USA
Distance from station: SSW 44mi, 71km
Updated: Thu, 01-23-2020 6:53pm CST
Clear
Clear
 Wind from N
Wind: N 10 mph , 17 km/h, Gust: 18 mph , 30 km/h
Temperature: 43°F , 6°C
Wind Chill: 37°F , 3°C
Dew Point: 34°F , 1°C
Humidity: 71%
Barometer: 1015.2 hPa
Clouds: Clear
Visibility: 10 miles , 16 km
2020/01/24 00:53 KGOK 240053Z AUTO 35009G16KT 330V030 10SM CLR 06/01 A2998 RMK AO2 WSHFT 0017 SLP159 T00560011 $
KOUN - Norman/Westheime, Oklahoma, USA
Distance from station: SSW 84mi, 136km
Updated: Thu, 01-23-2020 7:45pm CST
Clear
Clear
 Wind from W
Wind: W 9 mph , 15 km/h
Temperature: 46°F , 8°C
Wind Chill: 41°F , 5°C
Dew Point: 28°F , -2°C
Humidity: 50%
Barometer: 1014.2 hPa
Clouds: Clear
Visibility: 10 miles , 16 km
2020/01/24 01:45 KOUN 240145Z 28008KT 10SM CLR 08/M02 A2995
KOKC - Oklahoma City, Oklahoma, USA
Distance from station: SSW 78mi, 126km
Updated: Thu, 01-23-2020 7:42pm CST
Partly cloudy
Partly cloudy
 Wind from N
Wind: N 18 mph , 30 km/h
Temperature: 43°F , 6°C
Wind Chill: 35°F , 2°C
Dew Point: 34°F , 1°C
Humidity: 71%
Barometer: 1015.6 hPa
Clouds: Partly cloudy
Visibility: 10 miles , 16 km
Cloud details: Few Clouds 6000 ft
Few Clouds 9000 ft
Partly cloudy 25000 ft
2020/01/24 01:42 KOKC 240142Z 01016KT 10SM FEW060 FEW090 SCT250 06/01 A2999 RMK AO2 WSHFT 0123 T00560006 $
 
KPWA - Okla City/Wiley, Oklahoma, USA
Distance from station: SSW 70mi, 113km
Updated: Thu, 01-23-2020 7:26pm CST
Few Clouds
Few Clouds
 Wind from N
Wind: N 15 mph , 24 km/h
Temperature: 43°F , 6°C
Wind Chill: 36°F , 2°C
Dew Point: 36°F , 2°C
Humidity: 76%
Barometer: 1015.6 hPa
Clouds: Few Clouds
Visibility: 10 miles , 16 km
Cloud details: Few Clouds 9000 ft
2020/01/24 01:26 KPWA 240126Z 36013KT 10SM FEW090 06/02 A2999 RMK AO2 WSHFT 0106 T00610017 $
KRCE - Okla City/Page, Oklahoma, USA
Distance from station: SW 78mi, 126km
Updated: Thu, 01-23-2020 7:35pm CST
Light
Light
 Wind from NNE
Wind: NNE 15 mph , 24 km/h, Gust: 22 mph , 35 km/h
Temperature: 43°F , 6°C
Wind Chill: 36°F , 2°C
Dew Point: 32°F , 0°C
Humidity: 66%
Barometer: 1015.6 hPa
Summary: Light
Visibility: 10 miles , 16 km
2020/01/24 01:35 KRCE 240135Z AUTO 02013G19KT 10SM -UP 06/00 A2999 RMK AO2
KOKM - Okmulgee, Oklahoma, USA
Distance from station: SE 79mi, 127km
Updated: Thu, 01-23-2020 7:35pm CST
Overcast
Overcast
 Wind from NW
Wind: NW 16 mph , 26 km/h, Gust: 22 mph , 35 km/h
Temperature: 46°F , 8°C
Wind Chill: 39°F , 4°C
Dew Point: 37°F , 3°C
Humidity: 71%
Barometer: 1013.9 hPa
Clouds: Overcast
Visibility: 10 miles , 16 km
Cloud details: Partly cloudy 7500 ft
Overcast 8000 ft
2020/01/24 01:35 KOKM 240135Z AUTO 32014G19KT 10SM SCT075 OVC080 08/03 A2994 RMK AO2 T00750025
 
KPNC - Ponca City, Oklahoma, USA
Distance from station: N 22mi, 36km
Updated: Thu, 01-23-2020 7:12pm CST
Light rain, Overcast
Light rain, Overcast
 Wind from NW
Wind: NW 14 mph , 22 km/h, Gust: 24 mph , 39 km/h
Temperature: 45°F , 7°C
Wind Chill: 39°F , 4°C
Dew Point: 34°F , 1°C
Humidity: 66%
Barometer: 1014.6 hPa
Summary: Light rain
Clouds: Overcast
Visibility: 10 miles , 16 km
Cloud details: Mostly cloudy 1300 ft
Overcast 3200 ft
2020/01/24 01:12 KPNC 240112Z AUTO 32012G21KT 10SM -RA BKN013 OVC032 07/01 A2996 RMK AO2 P0000 T00720011
KSNL - Shawnee, Oklahoma, USA
Distance from station: S 74mi, 119km
Updated: Thu, 01-23-2020 7:35pm CST
Partly cloudy
Partly cloudy
 Wind from N
Wind: N 18 mph , 30 km/h, Gust: 25 mph , 41 km/h
Temperature: 43°F , 6°C
Wind Chill: 35°F , 2°C
Dew Point: 34°F , 1°C
Humidity: 71%
Barometer: 1014.9 hPa
Clouds: Partly cloudy
Visibility: 10 miles , 16 km
Cloud details: Partly cloudy 9000 ft
2020/01/24 01:35 KSNL 240135Z AUTO 36016G22KT 10SM SCT090 06/01 A2997 RMK AO2 T00620007
KSWO - Stillwater, Oklahoma, USA
Distance from station: S 17mi, 28km
Updated: Thu, 01-23-2020 6:53pm CST
Light rain, Overcast
Light rain, Overcast
 Wind from NNW
Wind: NNW 15 mph , 24 km/h, Gust: 26 mph , 43 km/h
Temperature: 43°F , 6°C
Wind Chill: 36°F , 2°C
Dew Point: 36°F , 2°C
Humidity: 76%
Barometer: 1014.6 hPa
Summary: Light rain
Clouds: Overcast
Visibility: 10 miles , 16 km
Cloud details: Partly cloudy 4400 ft
Overcast 7000 ft
2020/01/24 00:53 KSWO 240053Z 33013G23KT 10SM -RA SCT044 OVC070 06/02 A2996 RMK AO2 PK WND 34031/0014 RAB36 SLP147 P0000 T00560017 $
 
KTIK - Tinker Afb, Oklahoma, USA
Distance from station: SSW 72mi, 115km
Updated: Thu, 01-23-2020 6:56pm CST
Clear
Clear
 Wind from W
Wind: W 9 mph , 15 km/h
Temperature: 48°F , 9°C
Wind Chill: 44°F , 7°C
Dew Point: 25°F , -4°C
Humidity: 40%
Barometer: 1014.2 hPa
Clouds: Clear
Visibility: 10 miles , 16 km
2020/01/24 00:56 KTIK 240056Z AUTO 28008KT 10SM CLR 09/M04 A2995 RMK AO2 SLPNO T00931036
KTUL - Tulsa, Oklahoma, USA
Distance from station: ESE 65mi, 105km
Updated: Thu, 01-23-2020 6:53pm CST
Light rain, Overcast
Light rain, Overcast
 Wind from WNW
Wind: WNW 15 mph , 24 km/h, Gust: 29 mph , 46 km/h
Temperature: 43°F , 6°C
Wind Chill: 36°F , 2°C
Dew Point: 37°F , 3°C
Humidity: 81%
Barometer: 1013.2 hPa
Summary: Light rain
Clouds: Overcast
Visibility: 10 miles , 16 km
Cloud details: Mostly cloudy 3700 ft
Overcast 4500 ft
2020/01/24 00:53 KTUL 240053Z 30013G25KT 10SM -RA BKN037 OVC045 06/03 A2992 RMK AO2 PK WND 29032/0039 RAB05 SLP135 P0000 T00560028